Accueil
METAR-TAF:

METAR-TAF

Aéroports :

Lihue, Hawaï, États-Unis

latitude: 21-59-02N, longitude: 159-20-28W, altitude: 45 m

Observation

Le bulletin a été fait il y a 18 minutes, à 21:53 UTC
Vent 13 kt de nord-est
Température 28°C
Humidité 70%
Pression 1017 hPa
Visibilité: 16.1 km
Quelques nuages à une hauteur de 1800 ft

METAR: PHLI 232153Z 05013KT 10SM FEW018 28/22 A3004 RMK AO2 SLP168 T02830222

Heure: 12:11 (22:11 UTC)

Prévision

Le bulletin a été fait il y a 4 heures et 27 minutes, à 17:44 UTC
Prévision valable du 23 à 18 UTC au 24 à 18 UTC
Vent 13 kt de nord-est
Visibilité: 10 km
Nuages épars à une hauteur de 2500 ft
Nuages épars à une hauteur de 4000 ft
averses à proximité

TAF: PHLI 231744Z 2318/2418 05013KT P6SM VCSH SCT025 SCT040

Observations et prévisions météorologiques de plus de 4000 aéroports (messages METAR et TAF).

Les stations disponibles sont représentées par des disques jaunes et rouges sur la carte.

Passer la souris dessus pour voir le nom de la station.

Cliquer dessus pour voir les observations et prévisions météorologiques.

Pour changer de carte: cliquez sur les boutons verts avec une croix noire pour zoomer, sur le bouton vert avec un tiret pour effectuer un zoom arrière, ou sur les flèches vertes pour les cartes adjacentes.


METAR-TAF: